Time;durP1;ratioP1;P1;durP2;ratioP2;P2;SDS_P1;SDS_P2;PMS_P1;PMS_P2;Temp;Humidity;BMP_temperature;BMP_pressure;BME280_temperature;BME280_humidity;BME280_pressure;Samples;Min_cycle;Max_cycle;Signal;HPM_P1;HPM_P2
2023/03/15 00:01:22;;;;;;;13.15;7.13;;;;;;;16.53;46.69;101251.22;5065284;28;20049;-31
2023/03/15 00:03:48;;;;;;;13.05;6.93;;;;;;;16.54;47.00;101258.25;5062111;28;21901;-29
2023/03/15 00:06:15;;;;;;;9.77;5.63;;;;;;;16.52;46.93;101263.75;5062616;28;20139;-31
2023/03/15 00:08:46;;;;;;;11.40;6.30;;;;;;;16.53;47.35;101259.25;5066038;28;20044;-31
2023/03/15 00:11:14;;;;;;;10.45;6.47;;;;;;;16.52;47.02;101263.75;5062739;28;20131;-30
2023/03/15 00:13:41;;;;;;;11.45;6.32;;;;;;;16.50;46.67;101259.50;5067478;28;20044;-29
2023/03/15 00:16:08;;;;;;;12.77;7.03;;;;;;;16.50;46.84;101259.50;5069173;28;20119;-30
2023/03/15 00:18:35;;;;;;;11.98;6.13;;;;;;;16.50;46.76;101248.81;5069734;28;20056;-31
2023/03/15 00:21:01;;;;;;;10.40;5.75;;;;;;;16.49;47.49;101260.50;5064580;28;20443;-32
2023/03/15 00:23:28;;;;;;;11.27;5.82;;;;;;;16.48;46.75;101258.78;5066258;28;20045;-31
2023/03/15 00:25:54;;;;;;;10.45;5.82;;;;;;;16.47;47.09;101251.75;5067270;28;20059;-29
2023/03/15 00:28:21;;;;;;;9.98;5.32;;;;;;;16.47;47.25;101262.44;5070733;28;20056;-30
2023/03/15 00:30:47;;;;;;;10.88;5.47;;;;;;;16.46;46.74;101264.28;5068537;28;20048;-30
2023/03/15 00:33:14;;;;;;;9.60;5.57;;;;;;;16.45;46.99;101267.94;5067681;28;20075;-30
2023/03/15 00:35:44;;;;;;;11.73;5.90;;;;;;;16.45;46.49;101269.78;5068411;28;20049;-29
2023/03/15 00:38:12;;;;;;;8.50;5.00;;;;;;;16.45;47.35;101275.13;5068414;28;20049;-30
2023/03/15 00:40:39;;;;;;;10.88;5.93;;;;;;;16.44;46.85;101274.28;5061509;28;20056;-32
2023/03/15 00:43:05;;;;;;;9.43;4.82;;;;;;;16.44;46.85;101268.06;5063787;28;20049;-31
2023/03/15 00:45:32;;;;;;;9.45;5.63;;;;;;;16.44;47.53;101273.41;5063863;28;20374;-31
2023/03/15 00:47:59;;;;;;;8.35;4.93;;;;;;;16.43;47.44;101269.88;5062514;28;20179;-32
2023/03/15 00:50:25;;;;;;;8.38;5.10;;;;;;;16.43;46.85;101283.28;5060648;28;20142;-30
2023/03/15 00:52:52;;;;;;;8.30;4.72;;;;;;;16.44;47.06;101286.78;5063226;28;20052;-31
2023/03/15 00:55:20;;;;;;;7.28;4.03;;;;;;;16.43;46.75;101290.44;5061523;28;20053;-31
2023/03/15 00:57:47;;;;;;;9.00;5.05;;;;;;;16.43;47.24;101285.94;5062084;28;20093;-32
2023/03/15 01:00:23;;;;;;;7.28;4.40;;;;;;;16.43;47.07;101296.66;5061051;28;20052;-30
2023/03/15 01:02:51;;;;;;;9.20;4.95;;;;;;;16.42;46.74;101300.31;5060962;28;20344;-31
2023/03/15 01:05:18;;;;;;;7.75;4.40;;;;;;;16.43;47.48;101301.16;5062498;28;20048;-31
2023/03/15 01:07:45;;;;;;;11.27;5.38;;;;;;;16.42;47.07;101305.66;5061025;28;20059;-29
2023/03/15 01:10:13;;;;;;;7.45;4.25;;;;;;;16.43;46.68;101309.19;5061949;28;20075;-30
2023/03/15 01:12:40;;;;;;;9.02;4.90;;;;;;;16.42;47.08;101315.50;5064585;28;20344;-31
2023/03/15 01:15:09;;;;;;;6.43;3.97;;;;;;;16.42;46.49;101312.84;5059192;28;20067;-31
2023/03/15 01:17:36;;;;;;;7.43;4.38;;;;;;;16.42;47.31;101313.69;5064918;28;20041;-31
2023/03/15 01:20:04;;;;;;;7.45;4.63;;;;;;;16.41;46.42;101313.81;5065683;28;20083;-31
2023/03/15 01:22:30;;;;;;;6.97;3.90;;;;;;;16.40;47.28;101321.00;5068341;28;20041;-31
2023/03/15 01:24:57;;;;;;;7.05;4.25;;;;;;;16.40;47.61;101317.47;5064994;28;20339;-30
2023/03/15 01:27:24;;;;;;;7.05;3.95;;;;;;;16.40;46.79;101325.50;5069291;28;20144;-30
2023/03/15 01:29:50;;;;;;;6.20;3.53;;;;;;;16.39;46.66;101324.63;5069818;28;20060;-31
2023/03/15 01:32:17;;;;;;;7.55;4.10;;;;;;;16.40;46.67;101326.38;5068689;28;20045;-31
2023/03/15 01:34:43;;;;;;;5.15;3.45;;;;;;;16.39;46.52;101329.16;5061844;28;20128;-31
2023/03/15 01:37:13;;;;;;;6.20;2.97;;;;;;;16.39;47.39;101331.81;5067592;28;20049;-31
2023/03/15 01:39:41;;;;;;;6.55;3.83;;;;;;;16.39;47.39;101342.53;5064733;28;20052;-31
2023/03/15 01:42:08;;;;;;;6.07;3.50;;;;;;;16.38;47.16;101339.00;5065608;28;20067;-31
2023/03/15 01:44:50;;;;;;;6.15;3.22;;;;;;;16.36;46.83;101346.31;5066317;28;20053;-31
2023/03/15 01:47:16;;;;;;;6.55;3.47;;;;;;;16.38;47.54;101349.72;5068626;28;20075;-30
2023/03/15 01:49:49;;;;;;;6.45;3.60;;;;;;;16.37;47.10;101355.19;5067958;28;20052;-31
2023/03/15 01:52:37;;;;;;;7.03;4.10;;;;;;;16.35;47.62;101349.97;5066943;28;20431;-32
2023/03/15 01:55:14;;;;;;;5.55;3.08;;;;;;;16.36;46.44;101354.34;5066351;28;20053;-30
2023/03/15 01:57:48;;;;;;;6.28;3.38;;;;;;;16.36;46.86;101364.19;5067877;28;20350;-31
2023/03/15 02:00:17;;;;;;;6.32;3.40;;;;;;;16.35;46.52;101367.84;5066205;28;20052;-31
2023/03/15 02:03:08;;;;;;;5.00;3.15;;;;;;;16.32;47.61;101368.09;5065366;28;20041;-31
2023/03/15 02:05:44;;;;;;;6.50;2.80;;;;;;;16.34;46.56;101368.81;5067667;28;20048;-31
2023/03/15 02:08:14;;;;;;;5.10;3.30;;;;;;;16.32;46.96;101360.06;5067244;28;20386;-31
2023/03/15 02:10:50;;;;;;;5.70;3.35;;;;;;;16.28;46.95;101363.03;5066484;28;20048;-31
2023/03/15 02:13:23;;;;;;;5.97;3.72;;;;;;;16.28;47.08;101363.03;5069544;28;20424;-31
2023/03/15 02:15:52;;;;;;;5.18;3.10;;;;;;;16.26;47.78;101364.97;5069254;28;20044;-31
2023/03/15 02:18:19;;;;;;;4.47;2.88;;;;;;;16.26;47.04;101373.00;5071978;28;20044;-31
2023/03/15 02:21:17;;;;;;;5.47;3.10;;;;;;;16.22;47.58;101374.22;5069916;28;20044;-29
2023/03/15 02:23:51;;;;;;;3.65;2.58;;;;;;;16.22;47.93;101376.91;5069377;28;20051;-30
2023/03/15 02:26:26;;;;;;;5.13;2.67;;;;;;;16.22;47.65;101379.56;5065654;28;20154;-30
2023/03/15 02:28:53;;;;;;;4.88;2.42;;;;;;;16.21;47.71;101377.88;5068792;28;20048;-30
2023/03/15 02:31:20;;;;;;;5.32;2.78;;;;;;;16.21;47.22;101390.41;5069501;28;20040;-31
2023/03/15 02:33:54;;;;;;;4.82;2.40;;;;;;;16.20;47.95;101389.56;5064841;28;20040;-31
2023/03/15 02:36:24;;;;;;;5.38;3.05;;;;;;;16.20;46.98;101394.03;5069710;28;20485;-30
2023/03/15 02:38:52;;;;;;;2.95;2.10;;;;;;;16.19;47.00;101400.38;5067930;28;20152;-30
2023/03/15 02:41:41;;;;;;;5.15;2.80;;;;;;;16.17;47.58;101405.88;5065119;28;20053;-30
2023/03/15 02:44:15;;;;;;;4.53;2.67;;;;;;;16.19;46.88;101403.91;5065573;28;20048;-30
2023/03/15 02:46:44;;;;;;;3.30;2.40;;;;;;;16.19;47.11;101408.41;5068099;28;20135;-30
2023/03/15 02:49:12;;;;;;;3.83;2.30;;;;;;;16.19;46.87;101419.94;5065217;28;20086;-31
2023/03/15 02:51:39;;;;;;;4.05;2.58;;;;;;;16.19;47.96;101414.59;5063433;28;20140;-31
2023/03/15 02:54:05;;;;;;;5.03;3.05;;;;;;;16.18;46.72;101420.94;5062975;28;20052;-31
2023/03/15 02:56:32;;;;;;;3.92;2.00;;;;;;;16.18;46.96;101428.94;5066504;28;20056;-31
2023/03/15 02:58:59;;;;;;;3.97;2.10;;;;;;;16.19;46.78;101432.47;5066207;28;20378;-31
2023/03/15 03:01:26;;;;;;;3.95;2.10;;;;;;;16.17;47.24;101435.28;5065946;28;20347;-31
2023/03/15 03:03:52;;;;;;;3.10;2.15;;;;;;;16.16;47.68;101432.72;5064504;28;20045;-31
2023/03/15 03:06:20;;;;;;;4.07;2.17;;;;;;;16.14;47.47;101438.19;5065239;28;20060;-30
2023/03/15 03:08:46;;;;;;;4.15;2.30;;;;;;;16.14;47.60;101451.56;5064959;28;20049;-30
2023/03/15 03:11:14;;;;;;;4.88;2.33;;;;;;;16.14;47.80;101448.91;5065736;28;20143;-31
2023/03/15 03:13:41;;;;;;;3.78;2.17;;;;;;;16.12;47.04;101452.66;5066640;28;20075;-30
2023/03/15 03:16:09;;;;;;;3.67;2.10;;;;;;;16.10;47.98;101455.47;5066482;28;20056;-29
2023/03/15 03:18:35;;;;;;;3.47;2.13;;;;;;;16.10;47.14;101460.81;5067218;28;20051;-30
2023/03/15 03:21:04;;;;;;;4.25;2.03;;;;;;;16.09;47.60;101461.81;5065371;28;20147;-30
2023/03/15 03:23:32;;;;;;;3.95;2.05;;;;;;;16.08;47.35;101462.78;5065404;28;20045;-31
2023/03/15 03:26:00;;;;;;;3.30;2.00;;;;;;;16.07;47.72;101471.75;5064564;28;20053;-30
2023/03/15 03:28:29;;;;;;;3.55;2.00;;;;;;;16.06;47.53;101469.22;5063710;28;20055;-30
2023/03/15 03:30:57;;;;;;;2.80;1.70;;;;;;;16.06;47.59;101474.56;5065189;28;20138;-30
2023/03/15 03:33:24;;;;;;;3.20;1.70;;;;;;;16.06;48.00;101482.59;5067748;28;20059;-30
2023/03/15 03:35:51;;;;;;;3.90;2.10;;;;;;;16.05;47.52;101484.44;5064153;28;20055;-30
2023/03/15 03:38:17;;;;;;;3.15;1.83;;;;;;;16.05;47.33;101484.44;5064803;28;20049;-30
2023/03/15 03:40:44;;;;;;;3.03;1.67;;;;;;;16.04;47.16;101494.28;5065713;28;20059;-30
2023/03/15 03:43:11;;;;;;;2.97;1.77;;;;;;;16.04;47.14;101506.81;5066528;28;20055;-30
2023/03/15 03:45:37;;;;;;;2.45;1.77;;;;;;;16.01;47.81;101513.22;5063634;28;20318;-30
2023/03/15 03:48:04;;;;;;;2.28;1.58;;;;;;;16.02;48.09;101512.25;5063476;28;20063;-32
2023/03/15 03:50:31;;;;;;;3.20;1.55;;;;;;;16.10;48.02;101516.97;5064458;28;20053;-31
2023/03/15 03:52:57;;;;;;;3.25;1.95;;;;;;;16.16;47.88;101505.81;5065751;28;20100;-30
2023/03/15 03:55:24;;;;;;;2.55;1.77;;;;;;;16.24;47.24;101515.84;5061047;28;20523;-31
2023/03/15 03:57:51;;;;;;;2.85;1.58;;;;;;;16.32;47.36;101513.38;5065863;28;20048;-31
2023/03/15 04:00:19;;;;;;;2.28;1.63;;;;;;;16.41;46.63;101518.00;5066066;28;20052;-30
2023/03/15 04:02:45;;;;;;;2.33;1.75;;;;;;;16.48;46.78;101518.31;5063492;28;20451;-31
2023/03/15 04:05:12;;;;;;;1.95;1.30;;;;;;;16.54;46.44;101518.69;5065907;28;20541;-30
2023/03/15 04:07:39;;;;;;;1.98;1.45;;;;;;;16.61;47.02;101523.53;5066363;28;20044;-30
2023/03/15 04:10:05;;;;;;;2.25;1.40;;;;;;;16.66;46.69;101534.69;5065266;28;20076;-30
2023/03/15 04:12:32;;;;;;;2.55;1.55;;;;;;;16.68;46.30;101532.72;5067154;28;20037;-31
2023/03/15 04:14:58;;;;;;;2.28;1.40;;;;;;;16.68;46.54;101541.63;5066187;28;20063;-30
2023/03/15 04:17:25;;;;;;;2.67;1.25;;;;;;;16.64;46.70;101539.31;5065879;28;20375;-31
2023/03/15 04:19:52;;;;;;;2.08;1.40;;;;;;;16.59;46.60;101541.53;5063850;28;20466;-30
2023/03/15 04:22:18;;;;;;;2.78;1.50;;;;;;;16.50;46.40;101541.31;5065129;28;20048;-30
2023/03/15 04:24:45;;;;;;;2.13;1.25;;;;;;;16.42;46.91;101545.59;5061355;28;20059;-31
2023/03/15 04:27:13;;;;;;;1.88;1.15;;;;;;;16.33;46.61;101551.72;5063075;28;20455;-30
2023/03/15 04:29:43;;;;;;;4.43;1.40;;;;;;;16.24;47.67;101556.84;5062343;28;20091;-31
2023/03/15 04:32:10;;;;;;;2.03;1.38;;;;;;;16.17;47.08;101552.97;5063262;28;20087;-30
2023/03/15 04:34:37;;;;;;;2.60;1.40;;;;;;;16.12;47.99;101565.84;5063345;28;20115;-31
2023/03/15 04:37:04;;;;;;;2.25;1.30;;;;;;;16.06;47.22;101561.00;5058745;28;20052;-30
2023/03/15 04:39:31;;;;;;;3.47;1.48;;;;;;;15.98;47.69;101561.59;5061736;28;20045;-30
2023/03/15 04:41:57;;;;;;;2.25;1.58;;;;;;;15.93;47.51;101569.16;5057374;28;20363;-30
2023/03/15 04:44:26;;;;;;;2.08;1.08;;;;;;;15.89;47.65;101575.72;5065846;28;20052;-31
2023/03/15 04:46:54;;;;;;;3.47;1.35;;;;;;;15.85;48.06;101576.94;5061366;28;20048;-29
2023/03/15 04:49:21;;;;;;;1.95;1.30;;;;;;;15.83;47.43;101581.53;5064502;28;20144;-29
2023/03/15 04:51:47;;;;;;;2.00;1.20;;;;;;;15.83;48.45;101591.38;5066180;28;21428;-30
2023/03/15 04:54:14;;;;;;;2.80;1.25;;;;;;;15.81;47.92;101586.16;5064296;28;20041;-31
2023/03/15 04:56:41;;;;;;;2.70;1.58;;;;;;;15.80;48.41;101595.16;5063768;28;20063;-31
2023/03/15 04:59:07;;;;;;;2.10;1.50;;;;;;;15.81;47.73;101599.53;5068940;28;20052;-31
2023/03/15 05:01:34;;;;;;;2.78;1.42;;;;;;;15.84;48.17;101606.44;5062705;28;20052;-29
2023/03/15 05:04:01;;;;;;;3.03;1.63;;;;;;;15.86;47.45;101601.84;5067695;28;20061;-30
2023/03/15 05:06:28;;;;;;;2.83;1.75;;;;;;;15.86;47.42;101610.69;5067233;28;20470;-30
2023/03/15 05:08:54;;;;;;;2.40;1.52;;;;;;;15.88;48.10;101614.13;5073049;28;20851;-30
2023/03/15 05:11:21;;;;;;;2.97;2.00;;;;;;;15.89;47.91;101615.81;5071475;28;20053;-31
2023/03/15 05:13:48;;;;;;;4.55;1.90;;;;;;;15.91;48.40;101624.53;5070080;28;20036;-29
2023/03/15 05:16:14;;;;;;;4.68;2.50;;;;;;;15.92;47.35;101622.72;5070274;28;20052;-30
2023/03/15 05:18:41;;;;;;;3.55;1.83;;;;;;;15.93;47.71;101627.13;5072997;28;20417;-31
2023/03/15 05:21:08;;;;;;;4.20;2.30;;;;;;;15.94;47.08;101626.13;5073139;28;20040;-30
2023/03/15 05:23:34;;;;;;;5.35;2.80;;;;;;;15.94;47.22;101632.34;5072336;28;20056;-29
2023/03/15 05:26:02;;;;;;;4.97;2.75;;;;;;;15.95;47.52;101630.50;5070528;28;20071;-31
2023/03/15 05:28:29;;;;;;;4.80;2.75;;;;;;;15.95;48.17;101644.72;5073296;28;20059;-32
2023/03/15 05:30:55;;;;;;;6.43;3.38;;;;;;;15.95;47.86;101665.25;5072468;28;20139;-30
2023/03/15 05:33:25;;;;;;;6.85;3.70;;;;;;;15.96;47.45;101666.94;5074483;28;20053;-30
2023/03/15 05:35:54;;;;;;;7.22;3.53;;;;;;;15.96;47.88;101672.31;5071780;28;20055;-29
2023/03/15 05:38:25;;;;;;;6.30;3.60;;;;;;;15.96;47.62;101666.94;5071488;28;20431;-29
2023/03/15 05:40:52;;;;;;;7.72;4.10;;;;;;;15.95;47.64;101675.94;5071972;28;20260;-30
2023/03/15 05:43:20;;;;;;;8.88;4.68;;;;;;;15.93;47.28;101667.22;5073100;28;20045;-30
2023/03/15 05:45:47;;;;;;;7.88;4.60;;;;;;;15.91;47.89;101670.00;5072541;28;20131;-30
2023/03/15 05:48:15;;;;;;;7.65;4.72;;;;;;;15.92;48.41;101678.84;5068819;28;20066;-30
2023/03/15 05:50:42;;;;;;;8.15;5.03;;;;;;;15.92;48.11;101684.22;5072444;28;20053;-29
2023/03/15 05:53:09;;;;;;;8.05;4.80;;;;;;;15.91;48.43;101686.03;5070251;28;20067;-30
2023/03/15 05:55:36;;;;;;;9.73;5.32;;;;;;;15.91;47.18;101686.03;5073598;28;20060;-30
2023/03/15 05:58:02;;;;;;;9.45;5.47;;;;;;;15.89;48.09;101688.00;5070002;28;20055;-30
2023/03/15 06:00:29;;;;;;;9.70;5.45;;;;;;;15.90;47.88;101683.50;5073232;28;20059;-30
2023/03/15 06:02:56;;;;;;;9.27;5.60;;;;;;;15.88;47.25;101680.06;5069704;28;20778;-30
2023/03/15 06:05:22;;;;;;;10.73;5.80;;;;;;;15.89;47.94;101689.81;5072733;28;20049;-31
2023/03/15 06:07:49;;;;;;;8.18;4.97;;;;;;;15.88;47.95;101690.75;5073162;28;20076;-31
2023/03/15 06:10:15;;;;;;;10.07;5.22;;;;;;;15.86;48.31;101693.56;5070016;28;20045;-31
2023/03/15 06:12:43;;;;;;;10.60;5.65;;;;;;;15.93;47.43;101699.31;5073257;28;20040;-30
2023/03/15 06:15:10;;;;;;;11.57;5.85;;;;;;;16.03;47.32;101705.63;5068285;28;20052;-29
2023/03/15 06:17:37;;;;;;;9.75;5.68;;;;;;;16.12;47.96;101706.72;5068694;28;20498;-30
2023/03/15 06:20:04;;;;;;;11.13;6.38;;;;;;;16.21;46.71;101714.91;5072864;28;20046;-30
2023/03/15 06:22:30;;;;;;;8.98;5.13;;;;;;;16.28;47.73;101710.78;5074356;28;20428;-32
2023/03/15 06:24:57;;;;;;;8.80;5.25;;;;;;;16.36;46.64;101717.31;5072620;28;20114;-31
2023/03/15 06:27:23;;;;;;;9.20;5.88;;;;;;;16.40;47.29;101725.00;5072690;28;20163;-30
2023/03/15 06:29:50;;;;;;;9.55;5.78;;;;;;;16.42;47.21;101738.25;5073931;28;20115;-31
2023/03/15 06:32:16;;;;;;;11.13;5.97;;;;;;;16.43;47.53;101746.13;5068697;28;20062;-31
2023/03/15 06:34:43;;;;;;;8.63;5.38;;;;;;;16.46;47.41;101750.41;5067496;28;20111;-31
2023/03/15 06:37:12;;;;;;;9.73;5.82;;;;;;;16.50;46.09;101754.53;5067774;28;20131;-30
2023/03/15 06:39:45;;;;;;;9.88;5.82;;;;;;;16.53;46.12;101746.28;5071089;28;20505;-30
2023/03/15 06:42:12;;;;;;;8.98;5.28;;;;;;;16.54;46.87;101753.34;5070710;28;20442;-29
2023/03/15 06:44:40;;;;;;;9.55;5.03;;;;;;;16.50;45.91;101752.72;5068977;28;20055;-30
2023/03/15 06:47:07;;;;;;;8.40;5.03;;;;;;;16.45;46.01;101765.63;5071426;28;20040;-30
2023/03/15 06:49:34;;;;;;;11.68;5.78;;;;;;;16.39;46.79;101763.41;5068095;28;20355;-30
2023/03/15 06:52:01;;;;;;;9.95;5.53;;;;;;;16.34;45.92;101768.28;5068675;28;20099;-30
2023/03/15 06:54:28;;;;;;;8.45;5.18;;;;;;;16.29;46.31;101770.47;5070996;28;20068;-31
2023/03/15 06:56:55;;;;;;;7.63;4.95;;;;;;;16.22;46.85;101780.78;5072068;28;20048;-30
2023/03/15 06:59:22;;;;;;;10.95;5.45;;;;;;;16.18;46.89;101784.66;5069197;28;20058;-30
2023/03/15 07:01:49;;;;;;;9.18;5.60;;;;;;;16.14;47.65;101783.19;5070683;28;20048;-32
2023/03/15 07:04:16;;;;;;;10.52;5.10;;;;;;;16.15;47.00;101792.91;5071060;28;20049;-31
2023/03/15 07:06:42;;;;;;;9.52;5.43;;;;;;;16.16;47.56;101797.31;5070395;28;20083;-32
2023/03/15 07:09:09;;;;;;;9.80;5.47;;;;;;;16.16;47.75;101791.09;5065261;28;20056;-32
2023/03/15 07:11:35;;;;;;;8.77;5.18;;;;;;;16.15;46.95;101784.91;5069880;28;20040;-31
2023/03/15 07:14:02;;;;;;;9.73;5.28;;;;;;;16.12;46.57;101790.50;5065325;28;20131;-31
2023/03/15 07:16:29;;;;;;;10.27;5.30;;;;;;;16.12;47.57;101798.53;5069264;28;20131;-31
2023/03/15 07:18:58;;;;;;;7.97;4.57;;;;;;;16.09;47.66;101801.44;5069470;28;20138;-31
2023/03/15 07:21:26;;;;;;;11.75;5.57;;;;;;;16.12;46.54;101801.19;5070929;28;20048;-32
2023/03/15 07:23:52;;;;;;;8.65;5.10;;;;;;;16.17;46.65;101806.19;5065966;28;20041;-31
2023/03/15 07:26:19;;;;;;;9.02;5.20;;;;;;;16.18;47.12;101814.09;5067472;28;20049;-30
2023/03/15 07:28:46;;;;;;;7.85;4.55;;;;;;;16.20;47.13;101813.97;5069304;28;20056;-28
2023/03/15 07:31:13;;;;;;;8.05;5.05;;;;;;;16.22;46.48;101822.72;5069099;28;20052;-30
2023/03/15 07:33:39;;;;;;;9.18;4.68;;;;;;;16.23;47.46;101821.75;5071690;28;20044;-31
2023/03/15 07:36:07;;;;;;;8.65;4.80;;;;;;;16.24;46.45;101821.66;5071416;28;20346;-30
2023/03/15 07:38:34;;;;;;;8.88;5.15;;;;;;;16.26;47.10;101830.41;5069473;28;20044;-31
2023/03/15 07:41:03;;;;;;;9.77;4.78;;;;;;;16.28;47.16;101828.47;5070066;28;20044;-29
2023/03/15 07:43:30;;;;;;;9.65;5.15;;;;;;;16.30;47.22;101833.69;5067348;28;20064;-31
2023/03/15 07:45:56;;;;;;;8.65;4.30;;;;;;;16.33;47.06;101837.97;5069216;28;20098;-31
2023/03/15 07:48:23;;;;;;;7.63;4.43;;;;;;;16.34;46.61;101845.88;5069297;28;20091;-31
2023/03/15 07:50:50;;;;;;;9.73;5.55;;;;;;;16.35;47.02;101847.56;5069782;28;20045;-31
2023/03/15 07:53:17;;;;;;;8.15;5.00;;;;;;;16.36;47.15;101851.09;5068182;28;20059;-29
2023/03/15 07:55:46;;;;;;;8.55;5.15;;;;;;;16.39;46.97;101850.84;5064263;28;20056;-29
2023/03/15 07:58:13;;;;;;;10.50;5.03;;;;;;;16.42;46.83;101855.97;5068590;28;20135;-29
2023/03/15 08:00:40;;;;;;;10.30;5.30;;;;;;;16.45;46.16;101861.09;5068536;28;20048;-30
2023/03/15 08:03:07;;;;;;;10.30;4.53;;;;;;;16.47;46.56;101867.16;5072624;28;20052;-29
2023/03/15 08:05:34;;;;;;;11.82;5.60;;;;;;;16.50;47.10;101878.50;5068782;28;20131;-31
2023/03/15 08:08:01;;;;;;;9.73;5.10;;;;;;;16.52;47.06;101873.91;5072012;28;20044;-31
2023/03/15 08:10:27;;;;;;;8.15;4.65;;;;;;;16.57;46.53;101883.38;5071259;28;20052;-30
2023/03/15 08:12:54;;;;;;;10.20;4.78;;;;;;;16.60;47.30;101881.31;5070556;28;20049;-30
2023/03/15 08:15:21;;;;;;;10.38;5.22;;;;;;;16.64;46.50;101876.56;5068628;28;20044;-30
2023/03/15 08:17:48;;;;;;;10.65;4.80;;;;;;;16.70;47.13;101882.31;5071031;28;20339;-31
2023/03/15 08:20:18;;;;;;;8.43;4.45;;;;;;;16.74;46.71;101882.94;5071515;28;20056;-31
2023/03/15 08:22:49;;;;;;;8.77;4.47;;;;;;;16.81;45.92;101888.69;5071046;28;20048;-30
2023/03/15 08:25:19;;;;;;;11.73;5.22;;;;;;;16.87;46.11;101899.75;5069242;28;20127;-28
2023/03/15 08:27:46;;;;;;;10.35;4.38;;;;;;;16.92;46.68;101896.72;5067878;28;20061;-28
2023/03/15 08:30:14;;;;;;;7.90;4.15;;;;;;;16.99;45.71;101892.59;5071603;28;20449;-29
2023/03/15 08:32:44;;;;;;;9.70;4.47;;;;;;;17.06;46.13;101893.81;5070453;28;20136;-29
2023/03/15 08:35:12;;;;;;;12.95;4.20;;;;;;;17.11;46.26;101901.47;5071525;28;20052;-29
2023/03/15 08:37:46;;;;;;;8.10;4.03;;;;;;;17.16;45.93;101908.16;5068373;28;20049;-29
2023/03/15 08:40:17;;;;;;;9.23;4.50;;;;;;;17.21;46.36;101903.31;5071420;28;20127;-29
2023/03/15 08:42:44;;;;;;;12.90;4.10;;;;;;;17.25;45.94;101914.63;5068945;28;20594;-29
2023/03/15 08:45:10;;;;;;;8.93;3.95;;;;;;;17.31;45.66;101919.50;5071637;28;20040;-29
2023/03/15 08:47:37;;;;;;;8.82;4.55;;;;;;;17.36;45.64;101925.31;5069831;28;20079;-29
2023/03/15 08:50:09;;;;;;;7.90;4.00;;;;;;;17.40;45.53;101917.91;5067021;28;20052;-28
2023/03/15 08:52:37;;;;;;;9.32;3.78;;;;;;;17.46;45.60;101929.00;5071303;28;20052;-28
2023/03/15 08:55:04;;;;;;;8.10;4.25;;;;;;;17.48;45.83;101929.69;5068890;28;20740;-29
2023/03/15 08:57:31;;;;;;;9.68;4.60;;;;;;;17.54;45.35;101927.53;5067785;28;20048;-30
2023/03/15 09:00:00;;;;;;;7.07;3.85;;;;;;;17.58;44.81;101927.16;5071192;28;20145;-29
2023/03/15 09:02:27;;;;;;;7.88;4.32;;;;;;;17.63;45.44;101922.25;5069744;28;20055;-29
2023/03/15 09:04:54;;;;;;;5.45;3.15;;;;;;;17.67;45.32;101925.53;5071228;28;20041;-29
2023/03/15 09:07:20;;;;;;;6.38;3.20;;;;;;;17.71;44.85;101921.63;5064984;28;20063;-28
2023/03/15 09:09:47;;;;;;;7.35;3.45;;;;;;;17.74;45.17;101922.28;5069481;28;20087;-29
2023/03/15 09:12:15;;;;;;;7.60;3.28;;;;;;;17.78;44.92;101922.03;5070614;28;20049;-30
2023/03/15 09:14:42;;;;;;;6.18;3.40;;;;;;;17.81;44.91;101924.44;5071240;28;20098;-30
2023/03/15 09:17:09;;;;;;;6.78;3.28;;;;;;;17.84;44.87;101916.16;5064978;28;20052;-28
2023/03/15 09:19:36;;;;;;;5.25;3.30;;;;;;;17.87;44.99;101921.25;5067981;28;20135;-30
2023/03/15 09:22:02;;;;;;;6.30;3.45;;;;;;;17.90;45.04;101916.50;5069348;28;20044;-29
2023/03/15 09:24:49;;;;;;;5.63;3.03;;;;;;;17.93;45.03;101908.22;5069811;28;20048;-29
2023/03/15 09:27:17;;;;;;;5.60;2.88;;;;;;;17.98;44.67;101902.47;5069018;28;20044;-29
2023/03/15 09:29:44;;;;;;;5.43;2.78;;;;;;;18.02;44.91;101908.44;5069502;28;20056;-30
2023/03/15 09:32:10;;;;;;;6.13;3.22;;;;;;;18.05;45.05;101909.03;5069561;28;20045;-29
2023/03/15 09:34:37;;;;;;;5.95;3.22;;;;;;;18.09;44.92;101913.16;5070001;28;20051;-30
2023/03/15 09:37:08;;;;;;;9.25;3.55;;;;;;;18.14;44.58;101926.19;5069534;28;20286;-30
2023/03/15 09:39:35;;;;;;;7.10;3.13;;;;;;;18.18;44.89;101915.06;5069524;28;20139;-29
2023/03/15 09:42:04;;;;;;;5.95;2.65;;;;;;;18.22;45.00;101921.88;5071294;28;20532;-30
2023/03/15 09:44:38;;;;;;;5.45;2.72;;;;;;;18.29;44.80;101924.91;5070982;28;20051;-29
2023/03/15 09:47:12;;;;;;;5.57;2.92;;;;;;;18.36;44.84;101922.53;5072632;28;20044;-31
2023/03/15 09:49:45;;;;;;;6.22;2.53;;;;;;;18.41;44.84;101920.31;5070557;28;20143;-29
2023/03/15 09:52:43;;;;;;;5.57;2.75;;;;;;;18.45;44.83;101924.44;5074466;28;20048;-31
2023/03/15 09:55:19;;;;;;;5.20;2.45;;;;;;;18.54;44.71;101936.25;5064744;28;20413;-30
2023/03/15 09:57:52;;;;;;;5.22;2.97;;;;;;;18.61;44.54;101934.72;5068666;28;20069;-30
2023/03/15 10:00:21;;;;;;;5.13;2.67;;;;;;;18.67;44.54;101928.84;5069750;28;20052;-31
2023/03/15 10:02:58;;;;;;;5.25;2.58;;;;;;;18.73;44.48;101931.91;5068847;28;20081;-31
2023/03/15 10:05:36;;;;;;;4.25;2.65;;;;;;;18.80;44.44;101928.66;5070337;28;20052;-30
2023/03/15 10:08:09;;;;;;;5.65;2.70;;;;;;;18.87;44.14;101927.16;5069980;28;20045;-30
2023/03/15 10:10:59;;;;;;;3.53;1.98;;;;;;;18.93;43.97;101924.78;5061172;28;20056;-30
2023/03/15 10:13:32;;;;;;;5.65;2.80;;;;;;;19.02;44.34;101933.91;5070090;28;20053;-30
2023/03/15 10:16:17;;;;;;;4.82;2.70;;;;;;;19.07;43.88;101936.19;5072120;28;20041;-31
2023/03/15 10:19:01;;;;;;;3.30;2.20;;;;;;;19.14;43.91;101934.66;5072816;28;20052;-30
2023/03/15 10:21:32;;;;;;;4.03;2.03;;;;;;;19.20;44.14;101934.97;5073045;28;20075;-31
2023/03/15 10:24:02;;;;;;;5.40;2.50;;;;;;;19.27;43.91;101937.13;5068409;28;20059;-30
2023/03/15 10:26:33;;;;;;;5.68;2.40;;;;;;;19.30;43.90;101937.72;5069389;28;20142;-30
2023/03/15 10:29:02;;;;;;;5.00;2.35;;;;;;;19.36;43.57;101931.78;5071982;28;20045;-31
2023/03/15 10:31:45;;;;;;;3.25;2.08;;;;;;;19.41;43.36;101934.88;5064895;28;20140;-31
2023/03/15 10:34:14;;;;;;;3.67;1.90;;;;;;;19.47;43.21;101947.81;5067282;28;20049;-30
2023/03/15 10:36:48;;;;;;;3.90;2.38;;;;;;;19.53;43.29;101942.88;5070990;28;20131;-31
2023/03/15 10:39:14;;;;;;;4.50;2.00;;;;;;;19.56;43.45;101937.22;5072853;28;20424;-31
2023/03/15 10:41:46;;;;;;;3.13;1.65;;;;;;;19.61;43.32;101943.91;5072833;28;20064;-31
2023/03/15 10:44:17;;;;;;;3.40;2.28;;;;;;;19.67;42.94;101950.59;5072309;28;20139;-30
2023/03/15 10:47:12;;;;;;;4.22;1.92;;;;;;;19.70;42.69;101959.25;5069389;28;20048;-30
2023/03/15 10:49:55;;;;;;;4.25;1.90;;;;;;;19.75;42.75;101964.22;5073176;28;20052;-30
2023/03/15 10:52:30;;;;;;;4.20;1.83;;;;;;;19.77;43.16;101964.91;5071732;28;20059;-30
2023/03/15 10:55:00;;;;;;;3.10;1.88;;;;;;;19.80;42.87;101972.72;5070287;28;20052;-29
2023/03/15 10:57:38;;;;;;;3.35;1.95;;;;;;;19.85;43.05;101967.75;5069921;28;20143;-31
2023/03/15 11:00:22;;;;;;;3.35;1.73;;;;;;;19.88;42.38;101970.19;5070529;28;20440;-32
2023/03/15 11:02:59;;;;;;;4.97;2.03;;;;;;;19.92;42.38;101965.38;5067537;28;20072;-31
2023/03/15 11:05:37;;;;;;;3.85;1.88;;;;;;;19.94;42.39;101974.16;5070772;28;20129;-30
2023/03/15 11:08:14;;;;;;;7.20;2.20;;;;;;;19.93;42.08;101988.59;5071334;28;20049;-32
2023/03/15 11:10:43;;;;;;;3.22;1.83;;;;;;;19.96;42.86;101991.00;5072176;28;20102;-31
2023/03/15 11:13:16;;;;;;;3.83;1.70;;;;;;;19.95;42.13;101990.16;5068851;28;20063;-32
2023/03/15 11:16:02;;;;;;;2.92;1.40;;;;;;;19.96;42.06;101996.41;5067035;28;20040;-31
2023/03/15 11:18:52;;;;;;;3.53;1.50;;;;;;;19.95;42.45;101989.31;5063467;28;20055;-31
2023/03/15 11:21:22;;;;;;;6.45;1.38;;;;;;;19.94;42.36;101982.25;5072554;28;20052;-32
2023/03/15 11:23:50;;;;;;;4.90;1.60;;;;;;;19.93;42.14;101989.44;5073195;28;20048;-32
2023/03/15 11:26:25;;;;;;;4.07;1.65;;;;;;;19.94;42.02;101987.63;5072127;28;20143;-32
2023/03/15 11:29:02;;;;;;;3.55;1.35;;;;;;;19.94;41.92;101990.31;5069034;28;20159;-32
2023/03/15 11:31:30;;;;;;;3.25;1.23;;;;;;;19.94;41.72;101984.94;5070340;28;20440;-32
2023/03/15 11:34:06;;;;;;;2.42;1.50;;;;;;;19.95;41.90;101984.78;5071856;28;20277;-32